sensor_id;sensor_type;location;lat;lon;timestamp;P1;durP1;ratioP1;P2;durP2;ratioP2
7657;SDS011;8462;53.156;8.220;2023-04-25T00:00:29;11.57;;;3.53;;
7657;SDS011;8462;53.156;8.220;2023-04-25T00:02:56;11.37;;;3.80;;
7657;SDS011;8462;53.156;8.220;2023-04-25T00:05:25;11.50;;;3.13;;
7657;SDS011;8462;53.156;8.220;2023-04-25T00:07:52;15.97;;;3.87;;
7657;SDS011;8462;53.156;8.220;2023-04-25T00:10:20;17.93;;;3.50;;
7657;SDS011;8462;53.156;8.220;2023-04-25T00:12:47;14.47;;;3.43;;
7657;SDS011;8462;53.156;8.220;2023-04-25T00:15:14;15.90;;;3.83;;
7657;SDS011;8462;53.156;8.220;2023-04-25T00:17:41;16.17;;;3.20;;
7657;SDS011;8462;53.156;8.220;2023-04-25T00:20:08;12.27;;;3.60;;
7657;SDS011;8462;53.156;8.220;2023-04-25T00:22:38;14.60;;;2.97;;
7657;SDS011;8462;53.156;8.220;2023-04-25T00:25:05;10.73;;;3.57;;
7657;SDS011;8462;53.156;8.220;2023-04-25T00:27:32;14.87;;;3.60;;
7657;SDS011;8462;53.156;8.220;2023-04-25T00:29:59;13.10;;;3.43;;
7657;SDS011;8462;53.156;8.220;2023-04-25T00:32:26;14.93;;;3.67;;
7657;SDS011;8462;53.156;8.220;2023-04-25T00:34:53;10.10;;;3.27;;
7657;SDS011;8462;53.156;8.220;2023-04-25T00:37:20;12.47;;;3.43;;
7657;SDS011;8462;53.156;8.220;2023-04-25T00:39:49;11.10;;;3.17;;
7657;SDS011;8462;53.156;8.220;2023-04-25T00:42:18;15.43;;;3.83;;
7657;SDS011;8462;53.156;8.220;2023-04-25T00:44:46;10.37;;;3.20;;
7657;SDS011;8462;53.156;8.220;2023-04-25T00:47:13;11.40;;;3.27;;
7657;SDS011;8462;53.156;8.220;2023-04-25T00:49:41;15.47;;;3.53;;
7657;SDS011;8462;53.156;8.220;2023-04-25T00:52:09;16.20;;;3.37;;
7657;SDS011;8462;53.156;8.220;2023-04-25T00:54:36;8.70;;;3.20;;
7657;SDS011;8462;53.156;8.220;2023-04-25T00:57:05;14.47;;;3.27;;
7657;SDS011;8462;53.156;8.220;2023-04-25T00:59:32;11.97;;;4.37;;
7657;SDS011;8462;53.156;8.220;2023-04-25T01:02:00;13.60;;;3.13;;
7657;SDS011;8462;53.156;8.220;2023-04-25T01:04:27;13.90;;;3.50;;
7657;SDS011;8462;53.156;8.220;2023-04-25T01:06:54;14.33;;;3.30;;
7657;SDS011;8462;53.156;8.220;2023-04-25T01:09:22;12.07;;;3.60;;
7657;SDS011;8462;53.156;8.220;2023-04-25T01:11:49;9.67;;;2.90;;
7657;SDS011;8462;53.156;8.220;2023-04-25T01:14:18;12.03;;;3.03;;
7657;SDS011;8462;53.156;8.220;2023-04-25T01:16:45;12.50;;;3.03;;
7657;SDS011;8462;53.156;8.220;2023-04-25T01:19:13;9.30;;;3.00;;
7657;SDS011;8462;53.156;8.220;2023-04-25T01:21:46;8.90;;;3.03;;
7657;SDS011;8462;53.156;8.220;2023-04-25T01:24:14;12.70;;;3.60;;
7657;SDS011;8462;53.156;8.220;2023-04-25T01:26:42;10.83;;;3.13;;
7657;SDS011;8462;53.156;8.220;2023-04-25T01:29:15;8.77;;;3.33;;
7657;SDS011;8462;53.156;8.220;2023-04-25T01:31:42;10.13;;;3.13;;
7657;SDS011;8462;53.156;8.220;2023-04-25T01:34:10;13.43;;;3.53;;
7657;SDS011;8462;53.156;8.220;2023-04-25T01:36:37;15.47;;;3.23;;
7657;SDS011;8462;53.156;8.220;2023-04-25T01:39:06;16.10;;;3.70;;
7657;SDS011;8462;53.156;8.220;2023-04-25T01:41:35;18.53;;;3.87;;
7657;SDS011;8462;53.156;8.220;2023-04-25T01:44:02;15.60;;;3.53;;
7657;SDS011;8462;53.156;8.220;2023-04-25T01:46:30;13.40;;;3.17;;
7657;SDS011;8462;53.156;8.220;2023-04-25T01:48:58;17.43;;;3.20;;
7657;SDS011;8462;53.156;8.220;2023-04-25T01:51:25;11.53;;;2.90;;
7657;SDS011;8462;53.156;8.220;2023-04-25T01:53:52;12.83;;;3.07;;
7657;SDS011;8462;53.156;8.220;2023-04-25T01:56:20;12.73;;;3.07;;
7657;SDS011;8462;53.156;8.220;2023-04-25T01:58:48;12.17;;;3.20;;
7657;SDS011;8462;53.156;8.220;2023-04-25T02:01:33;11.57;;;3.23;;
7657;SDS011;8462;53.156;8.220;2023-04-25T02:04:14;9.10;;;2.87;;
7657;SDS011;8462;53.156;8.220;2023-04-25T02:06:42;12.63;;;3.87;;
7657;SDS011;8462;53.156;8.220;2023-04-25T02:09:10;18.80;;;4.30;;
7657;SDS011;8462;53.156;8.220;2023-04-25T02:11:43;9.17;;;3.30;;
7657;SDS011;8462;53.156;8.220;2023-04-25T02:14:34;7.97;;;2.87;;
7657;SDS011;8462;53.156;8.220;2023-04-25T02:17:17;12.70;;;3.67;;
7657;SDS011;8462;53.156;8.220;2023-04-25T02:19:44;12.10;;;3.63;;
7657;SDS011;8462;53.156;8.220;2023-04-25T02:22:11;15.40;;;3.20;;
7657;SDS011;8462;53.156;8.220;2023-04-25T02:24:38;11.50;;;3.47;;
7657;SDS011;8462;53.156;8.220;2023-04-25T02:27:07;12.80;;;3.47;;
7657;SDS011;8462;53.156;8.220;2023-04-25T02:29:34;9.13;;;3.87;;
7657;SDS011;8462;53.156;8.220;2023-04-25T02:32:01;16.00;;;3.43;;
7657;SDS011;8462;53.156;8.220;2023-04-25T02:34:28;10.27;;;3.17;;
7657;SDS011;8462;53.156;8.220;2023-04-25T02:36:55;11.10;;;3.63;;
7657;SDS011;8462;53.156;8.220;2023-04-25T02:39:22;15.50;;;3.63;;
7657;SDS011;8462;53.156;8.220;2023-04-25T02:41:50;14.07;;;3.20;;
7657;SDS011;8462;53.156;8.220;2023-04-25T02:44:19;16.40;;;3.00;;
7657;SDS011;8462;53.156;8.220;2023-04-25T02:46:46;12.23;;;3.37;;
7657;SDS011;8462;53.156;8.220;2023-04-25T02:49:13;7.40;;;2.47;;
7657;SDS011;8462;53.156;8.220;2023-04-25T02:51:40;12.73;;;2.90;;
7657;SDS011;8462;53.156;8.220;2023-04-25T02:54:09;14.17;;;3.77;;
7657;SDS011;8462;53.156;8.220;2023-04-25T02:56:40;10.33;;;2.67;;
7657;SDS011;8462;53.156;8.220;2023-04-25T02:59:12;10.10;;;2.73;;
7657;SDS011;8462;53.156;8.220;2023-04-25T03:01:40;7.10;;;2.10;;
7657;SDS011;8462;53.156;8.220;2023-04-25T03:04:07;12.07;;;3.27;;
7657;SDS011;8462;53.156;8.220;2023-04-25T03:06:34;11.03;;;2.90;;
7657;SDS011;8462;53.156;8.220;2023-04-25T03:09:00;8.83;;;2.80;;
7657;SDS011;8462;53.156;8.220;2023-04-25T03:11:29;11.90;;;2.37;;
7657;SDS011;8462;53.156;8.220;2023-04-25T03:13:56;10.70;;;2.70;;
7657;SDS011;8462;53.156;8.220;2023-04-25T03:16:23;11.63;;;3.03;;
7657;SDS011;8462;53.156;8.220;2023-04-25T03:18:51;9.47;;;2.57;;
7657;SDS011;8462;53.156;8.220;2023-04-25T03:21:18;14.23;;;3.00;;
7657;SDS011;8462;53.156;8.220;2023-04-25T03:23:45;12.50;;;3.37;;
7657;SDS011;8462;53.156;8.220;2023-04-25T03:26:12;10.50;;;3.10;;
7657;SDS011;8462;53.156;8.220;2023-04-25T03:28:39;11.20;;;2.77;;
7657;SDS011;8462;53.156;8.220;2023-04-25T03:31:06;12.40;;;2.60;;
7657;SDS011;8462;53.156;8.220;2023-04-25T03:33:33;10.43;;;2.90;;
7657;SDS011;8462;53.156;8.220;2023-04-25T03:36:01;6.50;;;2.80;;
7657;SDS011;8462;53.156;8.220;2023-04-25T03:38:29;6.97;;;2.63;;
7657;SDS011;8462;53.156;8.220;2023-04-25T03:40:56;5.77;;;2.37;;
7657;SDS011;8462;53.156;8.220;2023-04-25T03:43:33;7.53;;;2.50;;
7657;SDS011;8462;53.156;8.220;2023-04-25T03:46:04;12.17;;;2.47;;
7657;SDS011;8462;53.156;8.220;2023-04-25T03:48:31;9.83;;;2.33;;
7657;SDS011;8462;53.156;8.220;2023-04-25T03:50:58;11.13;;;2.77;;
7657;SDS011;8462;53.156;8.220;2023-04-25T03:53:26;7.97;;;2.50;;
7657;SDS011;8462;53.156;8.220;2023-04-25T03:56:13;11.07;;;2.40;;
7657;SDS011;8462;53.156;8.220;2023-04-25T03:58:42;11.07;;;2.47;;
7657;SDS011;8462;53.156;8.220;2023-04-25T04:01:09;9.53;;;2.40;;
7657;SDS011;8462;53.156;8.220;2023-04-25T04:03:38;8.90;;;1.90;;
7657;SDS011;8462;53.156;8.220;2023-04-25T04:06:05;13.97;;;2.37;;
7657;SDS011;8462;53.156;8.220;2023-04-25T04:08:41;9.93;;;2.60;;
7657;SDS011;8462;53.156;8.220;2023-04-25T04:11:09;8.60;;;2.40;;
7657;SDS011;8462;53.156;8.220;2023-04-25T04:13:36;13.67;;;2.90;;
7657;SDS011;8462;53.156;8.220;2023-04-25T04:16:04;11.63;;;2.20;;
7657;SDS011;8462;53.156;8.220;2023-04-25T04:18:31;9.33;;;2.47;;
7657;SDS011;8462;53.156;8.220;2023-04-25T04:20:59;7.37;;;2.47;;
7657;SDS011;8462;53.156;8.220;2023-04-25T04:23:29;8.43;;;2.27;;
7657;SDS011;8462;53.156;8.220;2023-04-25T04:25:58;7.67;;;2.30;;
7657;SDS011;8462;53.156;8.220;2023-04-25T04:28:28;9.03;;;2.60;;
7657;SDS011;8462;53.156;8.220;2023-04-25T04:31:14;9.97;;;2.07;;
7657;SDS011;8462;53.156;8.220;2023-04-25T04:33:43;5.83;;;1.77;;
7657;SDS011;8462;53.156;8.220;2023-04-25T04:36:10;7.27;;;1.93;;
7657;SDS011;8462;53.156;8.220;2023-04-25T04:38:36;7.97;;;2.03;;
7657;SDS011;8462;53.156;8.220;2023-04-25T04:41:05;8.20;;;2.20;;
7657;SDS011;8462;53.156;8.220;2023-04-25T04:43:44;7.73;;;1.77;;
7657;SDS011;8462;53.156;8.220;2023-04-25T04:46:27;6.30;;;1.97;;
7657;SDS011;8462;53.156;8.220;2023-04-25T04:49:16;6.03;;;2.33;;
7657;SDS011;8462;53.156;8.220;2023-04-25T04:51:59;6.27;;;1.70;;
7657;SDS011;8462;53.156;8.220;2023-04-25T04:54:36;3.03;;;1.60;;
7657;SDS011;8462;53.156;8.220;2023-04-25T04:57:13;9.67;;;2.27;;
7657;SDS011;8462;53.156;8.220;2023-04-25T05:00:14;7.63;;;2.07;;
7657;SDS011;8462;53.156;8.220;2023-04-25T05:03:06;2.77;;;1.23;;
7657;SDS011;8462;53.156;8.220;2023-04-25T05:05:41;5.60;;;1.87;;
7657;SDS011;8462;53.156;8.220;2023-04-25T05:08:27;7.03;;;1.80;;
7657;SDS011;8462;53.156;8.220;2023-04-25T05:11:12;7.77;;;2.23;;
7657;SDS011;8462;53.156;8.220;2023-04-25T05:13:59;9.40;;;2.60;;
7657;SDS011;8462;53.156;8.220;2023-04-25T05:17:02;4.50;;;1.83;;
7657;SDS011;8462;53.156;8.220;2023-04-25T05:19:50;6.80;;;2.13;;
7657;SDS011;8462;53.156;8.220;2023-04-25T05:22:43;9.90;;;2.40;;
7657;SDS011;8462;53.156;8.220;2023-04-25T05:25:33;5.73;;;2.10;;
7657;SDS011;8462;53.156;8.220;2023-04-25T05:28:20;5.40;;;1.70;;
7657;SDS011;8462;53.156;8.220;2023-04-25T05:31:00;3.87;;;1.63;;
7657;SDS011;8462;53.156;8.220;2023-04-25T05:33:40;6.50;;;2.30;;
7657;SDS011;8462;53.156;8.220;2023-04-25T05:36:07;6.03;;;1.73;;
7657;SDS011;8462;53.156;8.220;2023-04-25T05:38:35;6.00;;;1.93;;
7657;SDS011;8462;53.156;8.220;2023-04-25T05:41:34;7.40;;;2.23;;
7657;SDS011;8462;53.156;8.220;2023-04-25T05:44:23;4.83;;;1.97;;
7657;SDS011;8462;53.156;8.220;2023-04-25T05:47:10;6.43;;;2.40;;
7657;SDS011;8462;53.156;8.220;2023-04-25T05:49:55;4.50;;;1.90;;
7657;SDS011;8462;53.156;8.220;2023-04-25T05:52:33;6.80;;;2.07;;
7657;SDS011;8462;53.156;8.220;2023-04-25T05:55:22;6.50;;;2.10;;
7657;SDS011;8462;53.156;8.220;2023-04-25T05:57:50;5.57;;;1.53;;
7657;SDS011;8462;53.156;8.220;2023-04-25T06:00:17;5.20;;;1.60;;
7657;SDS011;8462;53.156;8.220;2023-04-25T06:02:48;8.03;;;1.93;;
7657;SDS011;8462;53.156;8.220;2023-04-25T06:05:17;5.80;;;2.13;;
7657;SDS011;8462;53.156;8.220;2023-04-25T06:07:46;7.37;;;1.77;;
7657;SDS011;8462;53.156;8.220;2023-04-25T06:10:13;2.87;;;1.43;;
7657;SDS011;8462;53.156;8.220;2023-04-25T06:12:41;7.47;;;1.80;;
7657;SDS011;8462;53.156;8.220;2023-04-25T06:15:09;6.50;;;2.57;;
7657;SDS011;8462;53.156;8.220;2023-04-25T06:17:36;5.80;;;1.90;;
7657;SDS011;8462;53.156;8.220;2023-04-25T06:20:05;8.07;;;2.43;;
7657;SDS011;8462;53.156;8.220;2023-04-25T06:22:33;5.53;;;2.07;;
7657;SDS011;8462;53.156;8.220;2023-04-25T06:25:00;5.40;;;1.50;;
7657;SDS011;8462;53.156;8.220;2023-04-25T06:27:29;8.17;;;2.67;;
7657;SDS011;8462;53.156;8.220;2023-04-25T06:29:56;4.27;;;1.50;;
7657;SDS011;8462;53.156;8.220;2023-04-25T06:32:24;8.67;;;2.20;;
7657;SDS011;8462;53.156;8.220;2023-04-25T06:34:52;6.63;;;1.93;;
7657;SDS011;8462;53.156;8.220;2023-04-25T06:37:22;7.63;;;3.67;;
7657;SDS011;8462;53.156;8.220;2023-04-25T06:39:50;6.03;;;1.70;;
7657;SDS011;8462;53.156;8.220;2023-04-25T06:42:17;5.07;;;1.50;;
7657;SDS011;8462;53.156;8.220;2023-04-25T06:44:51;5.57;;;1.70;;
7657;SDS011;8462;53.156;8.220;2023-04-25T06:47:19;5.90;;;2.13;;
7657;SDS011;8462;53.156;8.220;2023-04-25T06:49:47;5.83;;;2.20;;
7657;SDS011;8462;53.156;8.220;2023-04-25T06:52:14;4.70;;;1.60;;
7657;SDS011;8462;53.156;8.220;2023-04-25T06:54:44;6.67;;;3.27;;
7657;SDS011;8462;53.156;8.220;2023-04-25T06:57:21;8.50;;;2.00;;
7657;SDS011;8462;53.156;8.220;2023-04-25T06:59:48;7.07;;;3.27;;
7657;SDS011;8462;53.156;8.220;2023-04-25T07:02:15;4.30;;;1.80;;
7657;SDS011;8462;53.156;8.220;2023-04-25T07:04:42;6.30;;;2.37;;
7657;SDS011;8462;53.156;8.220;2023-04-25T07:07:11;11.03;;;4.23;;
7657;SDS011;8462;53.156;8.220;2023-04-25T07:09:46;4.53;;;1.80;;
7657;SDS011;8462;53.156;8.220;2023-04-25T07:12:14;10.63;;;3.73;;
7657;SDS011;8462;53.156;8.220;2023-04-25T07:14:42;5.37;;;2.70;;
7657;SDS011;8462;53.156;8.220;2023-04-25T07:17:09;4.70;;;1.60;;
7657;SDS011;8462;53.156;8.220;2023-04-25T07:19:37;4.37;;;1.73;;
7657;SDS011;8462;53.156;8.220;2023-04-25T07:22:05;8.00;;;1.97;;
7657;SDS011;8462;53.156;8.220;2023-04-25T07:24:34;4.00;;;1.93;;
7657;SDS011;8462;53.156;8.220;2023-04-25T07:27:04;7.30;;;1.77;;
7657;SDS011;8462;53.156;8.220;2023-04-25T07:30:01;5.80;;;1.40;;
7657;SDS011;8462;53.156;8.220;2023-04-25T07:32:29;7.73;;;1.67;;
7657;SDS011;8462;53.156;8.220;2023-04-25T07:34:56;5.83;;;1.63;;
7657;SDS011;8462;53.156;8.220;2023-04-25T07:37:23;7.40;;;1.60;;
7657;SDS011;8462;53.156;8.220;2023-04-25T07:40:02;6.20;;;1.53;;
7657;SDS011;8462;53.156;8.220;2023-04-25T07:42:32;5.47;;;2.00;;
7657;SDS011;8462;53.156;8.220;2023-04-25T07:44:59;4.63;;;1.60;;
7657;SDS011;8462;53.156;8.220;2023-04-25T07:47:30;4.50;;;1.77;;
7657;SDS011;8462;53.156;8.220;2023-04-25T07:49:58;4.03;;;1.20;;
7657;SDS011;8462;53.156;8.220;2023-04-25T07:52:25;3.80;;;1.37;;
7657;SDS011;8462;53.156;8.220;2023-04-25T07:55:00;4.63;;;1.70;;
7657;SDS011;8462;53.156;8.220;2023-04-25T07:57:39;4.73;;;1.17;;
7657;SDS011;8462;53.156;8.220;2023-04-25T08:00:09;3.23;;;1.10;;
7657;SDS011;8462;53.156;8.220;2023-04-25T08:02:44;2.60;;;1.00;;
7657;SDS011;8462;53.156;8.220;2023-04-25T08:05:15;2.13;;;1.10;;
7657;SDS011;8462;53.156;8.220;2023-04-25T08:07:46;3.43;;;0.90;;
7657;SDS011;8462;53.156;8.220;2023-04-25T08:10:13;2.33;;;0.90;;
7657;SDS011;8462;53.156;8.220;2023-04-25T08:12:43;8.13;;;4.33;;
7657;SDS011;8462;53.156;8.220;2023-04-25T08:15:11;1.83;;;0.87;;
7657;SDS011;8462;53.156;8.220;2023-04-25T08:17:40;2.60;;;1.23;;
7657;SDS011;8462;53.156;8.220;2023-04-25T08:20:09;2.47;;;1.07;;
7657;SDS011;8462;53.156;8.220;2023-04-25T08:22:38;2.80;;;1.00;;
7657;SDS011;8462;53.156;8.220;2023-04-25T08:25:22;3.53;;;1.33;;
7657;SDS011;8462;53.156;8.220;2023-04-25T08:27:50;4.90;;;1.23;;
7657;SDS011;8462;53.156;8.220;2023-04-25T08:30:20;2.03;;;1.23;;
7657;SDS011;8462;53.156;8.220;2023-04-25T08:32:47;2.90;;;1.63;;
7657;SDS011;8462;53.156;8.220;2023-04-25T08:35:44;3.77;;;1.40;;
7657;SDS011;8462;53.156;8.220;2023-04-25T08:38:12;2.13;;;1.30;;
7657;SDS011;8462;53.156;8.220;2023-04-25T08:40:40;6.60;;;1.77;;
7657;SDS011;8462;53.156;8.220;2023-04-25T08:43:13;3.03;;;0.90;;
7657;SDS011;8462;53.156;8.220;2023-04-25T08:45:41;2.93;;;0.93;;
7657;SDS011;8462;53.156;8.220;2023-04-25T08:48:13;2.67;;;1.00;;
7657;SDS011;8462;53.156;8.220;2023-04-25T08:50:43;0.60;;;0.50;;
7657;SDS011;8462;53.156;8.220;2023-04-25T08:53:15;1.93;;;1.00;;
7657;SDS011;8462;53.156;8.220;2023-04-25T08:55:45;3.30;;;0.70;;
7657;SDS011;8462;53.156;8.220;2023-04-25T08:58:15;3.07;;;0.97;;
7657;SDS011;8462;53.156;8.220;2023-04-25T09:00:45;3.17;;;1.13;;
7657;SDS011;8462;53.156;8.220;2023-04-25T09:03:12;1.83;;;0.93;;
7657;SDS011;8462;53.156;8.220;2023-04-25T09:05:40;6.23;;;1.80;;
7657;SDS011;8462;53.156;8.220;2023-04-25T09:08:08;4.53;;;1.67;;
7657;SDS011;8462;53.156;8.220;2023-04-25T09:10:35;5.67;;;1.30;;
7657;SDS011;8462;53.156;8.220;2023-04-25T09:13:04;5.60;;;1.23;;
7657;SDS011;8462;53.156;8.220;2023-04-25T09:15:47;6.13;;;2.30;;
7657;SDS011;8462;53.156;8.220;2023-04-25T09:18:35;5.80;;;1.40;;
7657;SDS011;8462;53.156;8.220;2023-04-25T09:21:04;4.50;;;1.20;;
7657;SDS011;8462;53.156;8.220;2023-04-25T09:23:38;2.33;;;1.20;;
7657;SDS011;8462;53.156;8.220;2023-04-25T09:26:06;4.47;;;1.20;;
7657;SDS011;8462;53.156;8.220;2023-04-25T09:28:34;3.97;;;1.20;;
7657;SDS011;8462;53.156;8.220;2023-04-25T09:31:04;2.13;;;1.00;;
7657;SDS011;8462;53.156;8.220;2023-04-25T09:33:36;4.00;;;1.20;;
7657;SDS011;8462;53.156;8.220;2023-04-25T09:36:05;3.83;;;0.90;;
7657;SDS011;8462;53.156;8.220;2023-04-25T09:38:59;2.07;;;0.83;;
7657;SDS011;8462;53.156;8.220;2023-04-25T09:41:31;4.70;;;1.10;;
7657;SDS011;8462;53.156;8.220;2023-04-25T09:44:03;2.57;;;0.90;;
7657;SDS011;8462;53.156;8.220;2023-04-25T09:46:35;3.70;;;1.07;;
7657;SDS011;8462;53.156;8.220;2023-04-25T09:49:06;1.97;;;0.80;;
7657;SDS011;8462;53.156;8.220;2023-04-25T09:51:40;3.77;;;0.93;;
7657;SDS011;8462;53.156;8.220;2023-04-25T09:54:09;5.00;;;1.73;;
7657;SDS011;8462;53.156;8.220;2023-04-25T09:56:43;3.67;;;1.20;;
7657;SDS011;8462;53.156;8.220;2023-04-25T09:59:13;4.33;;;1.20;;
7657;SDS011;8462;53.156;8.220;2023-04-25T10:01:42;3.57;;;0.87;;
7657;SDS011;8462;53.156;8.220;2023-04-25T10:04:22;1.63;;;0.87;;
7657;SDS011;8462;53.156;8.220;2023-04-25T10:06:56;2.03;;;0.80;;
7657;SDS011;8462;53.156;8.220;2023-04-25T10:09:25;5.90;;;1.20;;
7657;SDS011;8462;53.156;8.220;2023-04-25T10:11:55;3.47;;;1.20;;
7657;SDS011;8462;53.156;8.220;2023-04-25T10:14:23;3.47;;;0.97;;
7657;SDS011;8462;53.156;8.220;2023-04-25T10:16:52;5.40;;;1.10;;
7657;SDS011;8462;53.156;8.220;2023-04-25T10:19:20;3.07;;;1.27;;
7657;SDS011;8462;53.156;8.220;2023-04-25T10:21:51;3.20;;;1.00;;
7657;SDS011;8462;53.156;8.220;2023-04-25T10:24:22;3.73;;;1.43;;
7657;SDS011;8462;53.156;8.220;2023-04-25T10:26:50;2.93;;;1.10;;
7657;SDS011;8462;53.156;8.220;2023-04-25T10:29:24;4.43;;;1.27;;
7657;SDS011;8462;53.156;8.220;2023-04-25T10:31:53;4.17;;;1.20;;
7657;SDS011;8462;53.156;8.220;2023-04-25T10:34:23;5.27;;;0.90;;
7657;SDS011;8462;53.156;8.220;2023-04-25T10:36:52;3.43;;;1.20;;
7657;SDS011;8462;53.156;8.220;2023-04-25T10:39:23;5.53;;;1.27;;
7657;SDS011;8462;53.156;8.220;2023-04-25T10:41:53;4.70;;;1.93;;
7657;SDS011;8462;53.156;8.220;2023-04-25T10:44:23;3.03;;;1.23;;
7657;SDS011;8462;53.156;8.220;2023-04-25T10:46:56;4.87;;;0.97;;
7657;SDS011;8462;53.156;8.220;2023-04-25T10:49:30;3.90;;;1.47;;
7657;SDS011;8462;53.156;8.220;2023-04-25T10:52:11;4.80;;;1.53;;
7657;SDS011;8462;53.156;8.220;2023-04-25T10:54:46;3.47;;;1.30;;
7657;SDS011;8462;53.156;8.220;2023-04-25T10:57:26;3.30;;;1.03;;
7657;SDS011;8462;53.156;8.220;2023-04-25T10:59:57;6.30;;;1.70;;
7657;SDS011;8462;53.156;8.220;2023-04-25T11:02:27;2.80;;;1.10;;
7657;SDS011;8462;53.156;8.220;2023-04-25T11:04:55;2.10;;;1.10;;
7657;SDS011;8462;53.156;8.220;2023-04-25T11:07:23;1.27;;;1.00;;
7657;SDS011;8462;53.156;8.220;2023-04-25T11:10:02;3.83;;;0.97;;
7657;SDS011;8462;53.156;8.220;2023-04-25T11:12:30;1.87;;;1.07;;
7657;SDS011;8462;53.156;8.220;2023-04-25T11:14:58;2.77;;;1.17;;
7657;SDS011;8462;53.156;8.220;2023-04-25T11:17:29;3.03;;;1.00;;
7657;SDS011;8462;53.156;8.220;2023-04-25T11:19:56;4.00;;;1.57;;
7657;SDS011;8462;53.156;8.220;2023-04-25T11:22:24;7.57;;;1.23;;
7657;SDS011;8462;53.156;8.220;2023-04-25T11:24:53;1.67;;;0.90;;
7657;SDS011;8462;53.156;8.220;2023-04-25T11:27:21;2.93;;;1.80;;
7657;SDS011;8462;53.156;8.220;2023-04-25T11:29:49;2.33;;;1.20;;
7657;SDS011;8462;53.156;8.220;2023-04-25T11:32:17;3.63;;;1.03;;
7657;SDS011;8462;53.156;8.220;2023-04-25T11:34:46;3.63;;;1.07;;
7657;SDS011;8462;53.156;8.220;2023-04-25T11:37:13;3.93;;;1.37;;
7657;SDS011;8462;53.156;8.220;2023-04-25T11:39:43;3.13;;;1.10;;
7657;SDS011;8462;53.156;8.220;2023-04-25T11:42:12;2.37;;;1.20;;
7657;SDS011;8462;53.156;8.220;2023-04-25T11:44:39;3.93;;;1.10;;
7657;SDS011;8462;53.156;8.220;2023-04-25T11:47:06;2.77;;;1.00;;
7657;SDS011;8462;53.156;8.220;2023-04-25T11:49:33;2.93;;;1.10;;
7657;SDS011;8462;53.156;8.220;2023-04-25T11:52:03;2.80;;;1.20;;
7657;SDS011;8462;53.156;8.220;2023-04-25T11:54:34;1.33;;;1.00;;
7657;SDS011;8462;53.156;8.220;2023-04-25T11:57:02;4.77;;;1.37;;
7657;SDS011;8462;53.156;8.220;2023-04-25T11:59:29;4.23;;;1.37;;
7657;SDS011;8462;53.156;8.220;2023-04-25T12:01:56;3.80;;;1.10;;
7657;SDS011;8462;53.156;8.220;2023-04-25T12:04:25;2.47;;;1.20;;
7657;SDS011;8462;53.156;8.220;2023-04-25T12:06:52;2.30;;;1.10;;
7657;SDS011;8462;53.156;8.220;2023-04-25T12:09:29;4.33;;;1.50;;
7657;SDS011;8462;53.156;8.220;2023-04-25T12:11:58;2.70;;;2.03;;
7657;SDS011;8462;53.156;8.220;2023-04-25T12:14:28;1.63;;;0.73;;
7657;SDS011;8462;53.156;8.220;2023-04-25T12:16:58;3.40;;;1.53;;
7657;SDS011;8462;53.156;8.220;2023-04-25T12:19:31;2.43;;;1.13;;
7657;SDS011;8462;53.156;8.220;2023-04-25T12:21:59;4.03;;;1.30;;
7657;SDS011;8462;53.156;8.220;2023-04-25T12:24:28;1.83;;;1.00;;
7657;SDS011;8462;53.156;8.220;2023-04-25T12:26:58;1.17;;;0.70;;
7657;SDS011;8462;53.156;8.220;2023-04-25T12:29:27;2.23;;;0.90;;
7657;SDS011;8462;53.156;8.220;2023-04-25T12:31:55;2.30;;;0.97;;
7657;SDS011;8462;53.156;8.220;2023-04-25T12:34:22;3.57;;;1.13;;
7657;SDS011;8462;53.156;8.220;2023-04-25T12:36:50;2.33;;;0.80;;
7657;SDS011;8462;53.156;8.220;2023-04-25T12:39:18;4.27;;;1.00;;
7657;SDS011;8462;53.156;8.220;2023-04-25T12:41:48;3.27;;;1.20;;
7657;SDS011;8462;53.156;8.220;2023-04-25T12:44:15;2.87;;;1.07;;
7657;SDS011;8462;53.156;8.220;2023-04-25T12:46:46;2.50;;;0.87;;
7657;SDS011;8462;53.156;8.220;2023-04-25T12:49:13;2.27;;;0.90;;
7657;SDS011;8462;53.156;8.220;2023-04-25T12:51:40;2.73;;;1.10;;
7657;SDS011;8462;53.156;8.220;2023-04-25T12:54:07;3.23;;;1.23;;
7657;SDS011;8462;53.156;8.220;2023-04-25T12:56:35;2.90;;;0.80;;
7657;SDS011;8462;53.156;8.220;2023-04-25T12:59:03;2.17;;;1.07;;
7657;SDS011;8462;53.156;8.220;2023-04-25T13:01:31;2.50;;;0.97;;
7657;SDS011;8462;53.156;8.220;2023-04-25T13:03:58;3.57;;;1.20;;
7657;SDS011;8462;53.156;8.220;2023-04-25T13:06:25;3.03;;;0.77;;
7657;SDS011;8462;53.156;8.220;2023-04-25T13:08:52;1.27;;;0.83;;
7657;SDS011;8462;53.156;8.220;2023-04-25T13:11:19;7.77;;;1.20;;
7657;SDS011;8462;53.156;8.220;2023-04-25T13:13:46;2.33;;;0.90;;
7657;SDS011;8462;53.156;8.220;2023-04-25T13:16:16;3.13;;;1.00;;
7657;SDS011;8462;53.156;8.220;2023-04-25T13:18:45;2.77;;;1.00;;
7657;SDS011;8462;53.156;8.220;2023-04-25T13:21:12;2.20;;;0.70;;
7657;SDS011;8462;53.156;8.220;2023-04-25T13:23:40;3.23;;;1.10;;
7657;SDS011;8462;53.156;8.220;2023-04-25T13:26:07;4.83;;;1.50;;
7657;SDS011;8462;53.156;8.220;2023-04-25T13:28:35;2.40;;;0.90;;
7657;SDS011;8462;53.156;8.220;2023-04-25T13:31:02;0.83;;;0.70;;
7657;SDS011;8462;53.156;8.220;2023-04-25T13:33:30;2.73;;;0.90;;
7657;SDS011;8462;53.156;8.220;2023-04-25T13:35:57;4.13;;;1.30;;
7657;SDS011;8462;53.156;8.220;2023-04-25T13:38:24;0.90;;;0.80;;
7657;SDS011;8462;53.156;8.220;2023-04-25T13:40:51;3.00;;;1.40;;
7657;SDS011;8462;53.156;8.220;2023-04-25T13:43:19;4.37;;;1.40;;
7657;SDS011;8462;53.156;8.220;2023-04-25T13:45:46;4.60;;;1.00;;
7657;SDS011;8462;53.156;8.220;2023-04-25T13:48:16;3.60;;;1.53;;
7657;SDS011;8462;53.156;8.220;2023-04-25T13:50:45;4.47;;;1.20;;
7657;SDS011;8462;53.156;8.220;2023-04-25T13:53:12;4.73;;;2.03;;
7657;SDS011;8462;53.156;8.220;2023-04-25T13:55:39;1.70;;;0.83;;
7657;SDS011;8462;53.156;8.220;2023-04-25T13:58:06;5.27;;;0.90;;
7657;SDS011;8462;53.156;8.220;2023-04-25T14:00:35;3.73;;;1.37;;
7657;SDS011;8462;53.156;8.220;2023-04-25T14:03:04;2.20;;;1.10;;
7657;SDS011;8462;53.156;8.220;2023-04-25T14:05:32;2.63;;;1.10;;
7657;SDS011;8462;53.156;8.220;2023-04-25T14:08:05;3.13;;;0.93;;
7657;SDS011;8462;53.156;8.220;2023-04-25T14:10:32;4.03;;;1.53;;
7657;SDS011;8462;53.156;8.220;2023-04-25T14:13:00;7.17;;;1.20;;
7657;SDS011;8462;53.156;8.220;2023-04-25T14:15:28;2.57;;;1.20;;
7657;SDS011;8462;53.156;8.220;2023-04-25T14:17:56;3.17;;;1.20;;
7657;SDS011;8462;53.156;8.220;2023-04-25T14:20:23;3.23;;;1.43;;
7657;SDS011;8462;53.156;8.220;2023-04-25T14:22:50;5.87;;;1.77;;
7657;SDS011;8462;53.156;8.220;2023-04-25T14:25:20;1.80;;;1.07;;
7657;SDS011;8462;53.156;8.220;2023-04-25T14:27:47;2.40;;;1.30;;
7657;SDS011;8462;53.156;8.220;2023-04-25T14:30:15;4.50;;;1.53;;
7657;SDS011;8462;53.156;8.220;2023-04-25T14:32:42;3.67;;;1.30;;
7657;SDS011;8462;53.156;8.220;2023-04-25T14:35:10;3.60;;;1.00;;
7657;SDS011;8462;53.156;8.220;2023-04-25T14:37:37;2.30;;;0.97;;
7657;SDS011;8462;53.156;8.220;2023-04-25T14:40:04;4.33;;;1.07;;
7657;SDS011;8462;53.156;8.220;2023-04-25T14:42:35;2.73;;;1.00;;
7657;SDS011;8462;53.156;8.220;2023-04-25T14:45:02;2.93;;;1.27;;
7657;SDS011;8462;53.156;8.220;2023-04-25T14:47:30;2.70;;;1.50;;
7657;SDS011;8462;53.156;8.220;2023-04-25T14:49:57;2.53;;;1.50;;
7657;SDS011;8462;53.156;8.220;2023-04-25T14:52:24;5.67;;;1.40;;
7657;SDS011;8462;53.156;8.220;2023-04-25T14:54:51;1.20;;;1.00;;
7657;SDS011;8462;53.156;8.220;2023-04-25T14:57:18;2.30;;;1.27;;
7657;SDS011;8462;53.156;8.220;2023-04-25T14:59:46;4.63;;;1.00;;
7657;SDS011;8462;53.156;8.220;2023-04-25T15:02:13;3.47;;;1.27;;
7657;SDS011;8462;53.156;8.220;2023-04-25T15:04:40;6.47;;;1.80;;
7657;SDS011;8462;53.156;8.220;2023-04-25T15:07:07;3.60;;;1.30;;
7657;SDS011;8462;53.156;8.220;2023-04-25T15:09:34;3.70;;;1.50;;
7657;SDS011;8462;53.156;8.220;2023-04-25T15:12:01;4.27;;;1.20;;
7657;SDS011;8462;53.156;8.220;2023-04-25T15:14:28;3.23;;;1.17;;
7657;SDS011;8462;53.156;8.220;2023-04-25T15:16:58;1.27;;;0.60;;
7657;SDS011;8462;53.156;8.220;2023-04-25T15:19:25;3.20;;;1.30;;
7657;SDS011;8462;53.156;8.220;2023-04-25T15:21:52;2.63;;;1.20;;
7657;SDS011;8462;53.156;8.220;2023-04-25T15:24:19;5.77;;;1.20;;
7657;SDS011;8462;53.156;8.220;2023-04-25T15:26:47;4.67;;;1.30;;
7657;SDS011;8462;53.156;8.220;2023-04-25T15:29:14;2.20;;;1.40;;
7657;SDS011;8462;53.156;8.220;2023-04-25T15:31:41;2.67;;;1.17;;